Time,TemperatureF,DewpointF,PressureIn,WindDirection,WindDirectionDegrees,WindSpeedMPH,WindSpeedGustMPH,Humidity,HourlyPrecipIn,Conditions,Clouds,dailyrainin,SoftwareType,DateUTC
2013-07-31 00:04:00,77.4,53.1,30.07,SSW,202,0.0,-999.0,43,-99.99,,,0.00,Acu-Link.com,2013-07-31 06:04:00,
2013-07-31 00:19:00,76.5,52.9,30.07,SE,135,0.0,-999.0,44,-99.99,,,0.00,Acu-Link.com,2013-07-31 06:19:00,
2013-07-31 00:34:00,75.7,51.6,30.07,South,180,0.0,-999.0,43,-99.99,,,0.00,Acu-Link.com,2013-07-31 06:34:00,
2013-07-31 00:50:00,75.0,52.2,30.07,South,180,0.0,-999.0,45,-99.99,,,0.00,Acu-Link.com,2013-07-31 06:50:00,
2013-07-31 01:05:00,75.0,52.8,30.07,South,180,0.0,-999.0,46,-99.99,,,0.00,Acu-Link.com,2013-07-31 07:05:00,
2013-07-31 01:20:00,75.2,51.8,30.07,West,270,0.0,-999.0,44,-99.99,,,0.00,Acu-Link.com,2013-07-31 07:20:00,
2013-07-31 01:35:00,74.3,52.2,30.08,SW,225,0.0,-999.0,46,-99.99,,,0.00,Acu-Link.com,2013-07-31 07:35:00,
2013-07-31 01:50:00,74.1,52.6,30.07,SSW,202,0.0,-999.0,47,-99.99,,,0.00,Acu-Link.com,2013-07-31 07:50:00,
2013-07-31 02:06:00,73.8,52.8,30.07,SW,225,1.1,-999.0,48,-99.99,,,0.00,Acu-Link.com,2013-07-31 08:06:00,
2013-07-31 02:21:00,73.2,52.3,30.07,South,180,0.0,-999.0,48,-99.99,,,0.00,Acu-Link.com,2013-07-31 08:21:00,
2013-07-31 02:36:00,72.7,53.0,30.07,SW,225,0.0,-999.0,50,-99.99,,,0.00,Acu-Link.com,2013-07-31 08:36:00,
2013-07-31 02:51:00,71.2,53.2,30.07,ENE,67,0.0,-999.0,53,-99.99,,,0.00,Acu-Link.com,2013-07-31 08:51:00,
2013-07-31 03:06:00,70.3,53.9,30.07,East,90,0.0,-999.0,56,-99.99,,,0.00,Acu-Link.com,2013-07-31 09:06:00,
2013-07-31 03:21:00,69.8,54.3,30.07,NE,45,0.0,-999.0,58,-99.99,,,0.00,Acu-Link.com,2013-07-31 09:21:00,
2013-07-31 03:37:00,69.4,54.0,30.06,ENE,67,0.0,-999.0,58,-99.99,,,0.00,Acu-Link.com,2013-07-31 09:37:00,
2013-07-31 03:52:00,69.1,54.1,30.07,East,90,0.0,-999.0,59,-99.99,,,0.00,Acu-Link.com,2013-07-31 09:52:00,
2013-07-31 04:07:00,69.4,54.0,30.07,East,90,0.0,-999.0,58,-99.99,,,0.00,Acu-Link.com,2013-07-31 10:07:00,
2013-07-31 04:22:00,69.8,52.9,30.08,NNE,22,2.7,-999.0,55,-99.99,,,0.00,Acu-Link.com,2013-07-31 10:22:00,
2013-07-31 04:37:00,70.7,53.2,30.08,East,90,3.1,-999.0,54,-99.99,,,0.00,Acu-Link.com,2013-07-31 10:37:00,
2013-07-31 04:53:00,70.5,52.6,30.08,NW,315,4.3,-999.0,53,-99.99,,,0.00,Acu-Link.com,2013-07-31 10:53:00,
2013-07-31 05:08:00,70.3,52.4,30.09,NNW,337,1.6,-999.0,53,-99.99,,,0.00,Acu-Link.com,2013-07-31 11:08:00,
2013-07-31 05:23:00,69.8,52.4,30.09,NW,315,1.6,-999.0,54,-99.99,,,0.00,Acu-Link.com,2013-07-31 11:23:00,
2013-07-31 05:38:00,69.4,50.5,30.10,North,0,2.2,-999.0,51,-99.99,,,0.00,Acu-Link.com,2013-07-31 11:38:00,
2013-07-31 05:54:00,69.1,49.7,30.10,North,0,1.6,-999.0,50,-99.99,,,0.00,Acu-Link.com,2013-07-31 11:54:00,
2013-07-31 06:09:00,68.7,50.9,30.10,NE,45,3.1,-999.0,53,-99.99,,,0.00,Acu-Link.com,2013-07-31 12:09:00,
2013-07-31 06:24:00,68.4,50.0,30.11,ESE,112,5.1,-999.0,52,-99.99,,,0.00,Acu-Link.com,2013-07-31 12:24:00,
2013-07-31 06:39:00,68.4,50.6,30.11,NE,45,3.1,-999.0,53,-99.99,,,0.00,Acu-Link.com,2013-07-31 12:39:00,
2013-07-31 06:54:00,70.3,50.3,30.13,NW,315,2.2,-999.0,49,-99.99,,,0.00,Acu-Link.com,2013-07-31 12:54:00,
2013-07-31 07:10:00,71.1,48.0,30.14,NNW,337,3.1,-999.0,44,-99.99,,,0.00,Acu-Link.com,2013-07-31 13:10:00,
2013-07-31 07:25:00,73.9,48.1,30.14,North,0,1.6,-999.0,40,-99.99,,,0.00,Acu-Link.com,2013-07-31 13:25:00,
2013-07-31 07:40:00,76.1,47.9,30.14,NW,315,2.2,-999.0,37,-99.99,,,0.00,Acu-Link.com,2013-07-31 13:40:00,
2013-07-31 07:55:00,80.1,49.9,30.14,NNE,22,4.7,-999.0,35,-99.99,,,0.00,Acu-Link.com,2013-07-31 13:55:00,
2013-07-31 08:10:00,80.1,51.4,30.15,NE,45,3.8,-999.0,37,-99.99,,,0.00,Acu-Link.com,2013-07-31 14:10:00,
2013-07-31 08:26:00,81.0,51.5,30.15,NNE,22,4.7,-999.0,36,-99.99,,,0.00,Acu-Link.com,2013-07-31 14:26:00,
2013-07-31 08:41:00,79.9,51.3,30.15,NE,45,4.7,-999.0,37,-99.99,,,0.00,Acu-Link.com,2013-07-31 14:41:00,
2013-07-31 08:56:00,80.2,51.6,30.16,NE,45,4.3,-999.0,37,-99.99,,,0.00,Acu-Link.com,2013-07-31 14:56:00,
2013-07-31 09:11:00,85.1,53.5,30.16,NE,45,2.2,-999.0,34,-99.99,,,0.00,Acu-Link.com,2013-07-31 15:11:00,
2013-07-31 09:42:00,82.4,52.7,30.15,North,0,2.2,-999.0,36,-99.99,,,0.00,Acu-Link.com,2013-07-31 15:42:00,
2013-07-31 09:57:00,82.4,53.5,30.15,NE,45,3.1,-999.0,37,-99.99,,,0.00,Acu-Link.com,2013-07-31 15:57:00,
2013-07-31 10:12:00,84.4,53.7,30.15,East,90,2.7,-999.0,35,-99.99,,,0.00,Acu-Link.com,2013-07-31 16:12:00,
2013-07-31 10:27:00,85.5,54.7,30.15,ENE,67,4.3,-999.0,35,-99.99,,,0.00,Acu-Link.com,2013-07-31 16:27:00,
2013-07-31 10:43:00,87.1,54.5,30.15,NE,45,0.0,-999.0,33,-99.99,,,0.00,Acu-Link.com,2013-07-31 16:43:00,
2013-07-31 10:58:00,87.1,54.5,30.15,NNE,22,2.7,-999.0,33,-99.99,,,0.00,Acu-Link.com,2013-07-31 16:58:00,
2013-07-31 11:13:00,88.5,53.1,30.15,NNE,22,2.7,-999.0,30,-99.99,,,0.00,Acu-Link.com,2013-07-31 17:13:00,
2013-07-31 11:28:00,88.0,53.5,30.14,NNW,337,0.0,-999.0,31,-99.99,,,0.00,Acu-Link.com,2013-07-31 17:28:00,
2013-07-31 11:43:00,88.2,52.8,30.14,WNW,292,2.2,-999.0,30,-99.99,,,0.00,Acu-Link.com,2013-07-31 17:43:00,
2013-07-31 11:59:00,91.9,51.0,30.13,SSE,157,3.1,-999.0,25,-99.99,,,0.00,Acu-Link.com,2013-07-31 17:59:00,
2013-07-31 12:14:00,91.9,52.1,30.13,SW,225,1.6,-999.0,26,-99.99,,,0.00,Acu-Link.com,2013-07-31 18:14:00,
2013-07-31 12:29:00,94.5,49.7,30.12,SSE,157,2.7,-999.0,22,-99.99,,,0.00,Acu-Link.com,2013-07-31 18:29:00,
2013-07-31 12:44:00,93.7,47.9,30.11,WNW,292,4.3,-999.0,21,-99.99,,,0.00,Acu-Link.com,2013-07-31 18:44:00,
2013-07-31 12:59:00,93.9,48.0,30.11,ENE,67,4.3,-999.0,21,-99.99,,,0.00,Acu-Link.com,2013-07-31 18:59:00,
2013-07-31 13:15:00,95.4,47.9,30.10,NE,45,3.1,-999.0,20,-99.99,,,0.00,Acu-Link.com,2013-07-31 19:15:00,
2013-07-31 13:30:00,96.3,49.9,30.09,NNE,22,4.7,-999.0,21,-99.99,,,0.00,Acu-Link.com,2013-07-31 19:30:00,
2013-07-31 13:45:00,96.6,50.2,30.08,North,0,2.7,-999.0,21,-99.99,,,0.00,Acu-Link.com,2013-07-31 19:45:00,
2013-07-31 14:00:00,97.5,51.0,30.07,ESE,112,4.3,-999.0,21,-99.99,,,0.00,Acu-Link.com,2013-07-31 20:00:00,
2013-07-31 14:15:00,97.0,50.5,30.07,NNE,22,2.2,-999.0,21,-99.99,,,0.00,Acu-Link.com,2013-07-31 20:15:00,
2013-07-31 14:31:00,99.7,50.0,30.06,SW,225,3.1,-999.0,19,-99.99,,,0.00,Acu-Link.com,2013-07-31 20:31:00,
2013-07-31 15:01:00,98.1,47.3,30.05,SSW,202,2.7,-999.0,18,-99.99,,,0.00,Acu-Link.com,2013-07-31 21:01:00,
2013-07-31 15:16:00,97.5,48.3,30.04,West,270,3.8,-999.0,19,-99.99,,,0.00,Acu-Link.com,2013-07-31 21:16:00,
2013-07-31 15:32:00,95.5,45.2,30.03,SSE,157,4.3,-999.0,18,-99.99,,,0.00,Acu-Link.com,2013-07-31 21:32:00,
2013-07-31 15:47:00,95.9,47.0,30.03,SE,135,3.8,-999.0,19,-99.99,,,0.00,Acu-Link.com,2013-07-31 21:47:00,
2013-07-31 16:02:00,99.5,48.4,30.02,ESE,112,4.7,-999.0,18,-99.99,,,0.00,Acu-Link.com,2013-07-31 22:02:00,
2013-07-31 16:17:00,99.5,48.4,30.00,SE,135,6.7,-999.0,18,-99.99,,,0.00,Acu-Link.com,2013-07-31 22:17:00,
2013-07-31 16:32:00,98.6,47.7,30.01,SW,225,3.1,-999.0,18,-99.99,,,0.00,Acu-Link.com,2013-07-31 22:32:00,
2013-07-31 16:48:00,97.7,48.4,30.00,SE,135,4.7,-999.0,19,-99.99,,,0.00,Acu-Link.com,2013-07-31 22:48:00,
2013-07-31 17:03:00,97.2,45.0,29.99,ESE,112,4.3,-999.0,17,-99.99,,,0.00,Acu-Link.com,2013-07-31 23:03:00,
2013-07-31 17:18:00,95.4,42.0,29.99,SSE,157,4.3,-999.0,16,-99.99,,,0.00,Acu-Link.com,2013-07-31 23:18:00,
2013-07-31 17:33:00,96.8,46.3,29.99,South,180,2.7,-999.0,18,-99.99,,,0.00,Acu-Link.com,2013-07-31 23:33:00,
2013-07-31 17:48:00,95.7,46.8,29.98,SSW,202,4.7,-999.0,19,-99.99,,,0.00,Acu-Link.com,2013-07-31 23:48:00,
2013-07-31 18:04:00,96.6,48.9,29.98,ESE,112,4.3,-999.0,20,-99.99,,,0.00,Acu-Link.com,2013-08-01 00:04:00,
2013-07-31 18:19:00,93.2,48.7,29.98,South,180,3.1,-999.0,22,-99.99,,,0.00,Acu-Link.com,2013-08-01 00:19:00,
2013-07-31 18:34:00,91.9,48.8,29.97,West,270,4.3,-999.0,23,-99.99,,,0.00,Acu-Link.com,2013-08-01 00:34:00,
2013-07-31 18:49:00,91.9,51.0,29.98,South,180,6.3,-999.0,25,-99.99,,,0.00,Acu-Link.com,2013-08-01 00:49:00,
2013-07-31 19:04:00,90.7,48.9,29.98,SSW,202,3.8,-999.0,24,-99.99,,,0.00,Acu-Link.com,2013-08-01 01:04:00,
2013-07-31 19:20:00,90.3,49.7,29.99,SW,225,2.7,-999.0,25,-99.99,,,0.00,Acu-Link.com,2013-08-01 01:20:00,
2013-07-31 19:35:00,89.4,50.0,30.00,West,270,3.8,-999.0,26,-99.99,,,0.00,Acu-Link.com,2013-08-01 01:35:00,
2013-07-31 19:50:00,88.5,49.2,30.01,WSW,247,2.2,-999.0,26,-99.99,,,0.00,Acu-Link.com,2013-08-01 01:50:00,
2013-07-31 20:05:00,87.6,49.5,30.01,WSW,247,1.1,-999.0,27,-99.99,,,0.00,Acu-Link.com,2013-08-01 02:05:00,
2013-07-31 20:21:00,86.7,49.7,30.01,West,270,2.7,-999.0,28,-99.99,,,0.00,Acu-Link.com,2013-08-01 02:21:00,
2013-07-31 20:36:00,86.0,50.0,30.01,SW,225,1.6,-999.0,29,-99.99,,,0.00,Acu-Link.com,2013-08-01 02:36:00,
2013-07-31 21:06:00,84.7,49.8,30.02,WSW,247,2.2,-999.0,30,-99.99,,,0.00,Acu-Link.com,2013-08-01 03:06:00,
2013-07-31 21:21:00,84.4,50.4,30.02,WSW,247,0.0,-999.0,31,-99.99,,,0.00,Acu-Link.com,2013-08-01 03:21:00,
2013-07-31 21:37:00,83.8,50.8,30.03,WSW,247,0.0,-999.0,32,-99.99,,,0.00,Acu-Link.com,2013-08-01 03:37:00,
2013-07-31 21:52:00,83.3,51.2,30.03,SW,225,1.6,-999.0,33,-99.99,,,0.00,Acu-Link.com,2013-08-01 03:52:00,
2013-07-31 22:07:00,81.7,51.3,30.03,SSE,157,2.7,-999.0,35,-99.99,,,0.00,Acu-Link.com,2013-08-01 04:07:00,
2013-07-31 22:22:00,80.2,52.3,30.03,SSE,157,2.2,-999.0,38,-99.99,,,0.00,Acu-Link.com,2013-08-01 04:22:00,
2013-07-31 22:37:00,79.7,53.2,30.04,South,180,2.7,-999.0,40,-99.99,,,0.00,Acu-Link.com,2013-08-01 04:37:00,
2013-07-31 22:53:00,79.5,53.1,30.04,SE,135,2.7,-999.0,40,-99.99,,,0.00,Acu-Link.com,2013-08-01 04:53:00,
2013-07-31 23:08:00,79.2,52.7,30.05,SSE,157,3.8,-999.0,40,-99.99,,,0.00,Acu-Link.com,2013-08-01 05:08:00,
2013-07-31 23:23:00,79.3,53.6,30.06,SSE,157,3.8,-999.0,41,-99.99,,,0.00,Acu-Link.com,2013-08-01 05:23:00,
2013-07-31 23:38:00,78.8,53.1,30.05,SSE,157,0.0,-999.0,41,-99.99,,,0.00,Acu-Link.com,2013-08-01 05:38:00,
2013-07-31 23:53:00,77.9,53.6,30.06,East,90,2.2,-999.0,43,-99.99,,,0.00,Acu-Link.com,2013-08-01 05:53:00,